Time;durP1;ratioP1;P1;durP2;ratioP2;P2;SDS_P1;SDS_P2;PMS_P1;PMS_P2;Temp;Humidity;BMP_temperature;BMP_pressure;BME280_temperature;BME280_humidity;BME280_pressure;Samples;Min_cycle;Max_cycle;Signal;HPM_P1;HPM_P2
2022/11/11 00:00:30;;;;;;;45.40;22.63;;;;;;;7.70;91.75;95975.53;5034282;28;20186;-76
2022/11/11 00:02:55;;;;;;;53.17;25.20;;;;;;;7.76;92.82;95964.41;5051758;28;20235;-75
2022/11/11 00:05:21;;;;;;;54.50;24.53;;;;;;;7.78;92.56;95970.31;5052028;28;20190;-75
2022/11/11 00:07:47;;;;;;;50.30;25.60;;;;;;;7.81;92.43;95954.25;5051829;28;20653;-75
2022/11/11 00:10:12;;;;;;;49.07;24.03;;;;;;;7.91;92.11;95964.56;5052236;28;20175;-75
2022/11/11 00:12:38;;;;;;;40.57;19.87;;;;;;;7.98;92.96;95962.88;5052294;28;20175;-75
2022/11/11 00:15:04;;;;;;;49.93;23.80;;;;;;;8.04;92.39;95970.09;5052327;28;20175;-75
2022/11/11 00:25:41;;;;;;;41.23;19.23;;;;;;;8.27;92.63;95972.81;5051439;28;20186;-74
2022/11/11 00:28:07;;;;;;;40.73;19.30;;;;;;;8.37;93.05;95977.91;5051641;28;20175;-76
2022/11/11 00:30:32;;;;;;;45.83;21.67;;;;;;;8.45;92.97;95976.06;5051366;28;20250;-76
2022/11/11 00:32:58;;;;;;;38.23;18.97;;;;;;;8.37;92.92;95946.44;5051372;28;20249;-75
2022/11/11 00:38:09;;;;;;;39.00;17.30;;;;;;;8.63;92.24;95981.91;5051097;28;20241;-75
2022/11/11 00:40:35;;;;;;;39.83;18.40;;;;;;;8.63;92.75;95973.22;5051411;28;20170;-75
2022/11/11 00:43:00;;;;;;;29.37;15.90;;;;;;;8.63;92.96;95970.59;5051055;28;20262;-75
2022/11/11 00:45:26;;;;;;;37.63;20.10;;;;;;;8.62;93.22;95969.78;5050023;28;20505;-75
2022/11/11 00:53:22;;;;;;;35.10;17.17;;;;;;;8.70;93.01;95972.34;5050958;28;20177;-75
2022/11/11 00:55:48;;;;;;;35.20;18.00;;;;;;;8.75;92.22;95971.00;5050836;28;20229;-76
2022/11/11 00:58:15;;;;;;;33.20;17.17;;;;;;;8.76;92.04;95964.78;5050902;28;20178;-75
2022/11/11 01:00:41;;;;;;;32.73;15.63;;;;;;;8.81;92.70;95967.72;5050636;28;20657;-75
2022/11/11 01:03:07;;;;;;;32.50;16.90;;;;;;;8.81;91.69;95963.28;5050572;28;20236;-76
2022/11/11 01:05:32;;;;;;;35.17;18.00;;;;;;;8.80;91.53;95972.16;5049910;28;20411;-75
2022/11/11 01:07:57;;;;;;;35.47;18.27;;;;;;;8.65;92.37;95929.22;5050360;28;20798;-75
2022/11/11 01:10:38;;;;;;;34.78;19.35;;;;;;;8.62;93.92;95933.03;5050058;28;20406;-75
2022/11/11 01:13:19;;;;;;;36.17;18.53;;;;;;;8.85;93.51;95959.31;5050754;28;20175;-75
2022/11/11 01:15:47;;;;;;;36.83;20.52;;;;;;;8.90;93.13;95958.81;5049722;28;20414;-75
2022/11/11 01:18:18;;;;;;;36.73;18.20;;;;;;;8.86;94.48;95965.38;5050771;28;20175;-75
2022/11/11 01:20:44;;;;;;;40.05;20.83;;;;;;;8.83;94.88;95963.09;5049365;28;20411;-75
2022/11/11 01:23:11;;;;;;;43.17;18.33;;;;;;;8.90;94.55;95961.44;5050247;28;20884;-75
2022/11/11 01:25:39;;;;;;;33.70;16.53;;;;;;;8.91;94.30;95945.47;5050497;28;20178;-76
2022/11/11 01:28:06;;;;;;;35.27;16.23;;;;;;;9.08;93.67;95962.78;5050577;28;20605;-76
2022/11/11 01:30:32;;;;;;;31.80;15.80;;;;;;;9.11;93.45;95964.25;5049288;28;20179;-76
2022/11/11 01:32:58;;;;;;;31.70;15.97;;;;;;;8.99;93.01;95955.16;5050540;28;20297;-75
2022/11/11 01:35:24;;;;;;;32.30;16.57;;;;;;;9.07;92.95;95961.16;5050254;28;20178;-76
2022/11/11 01:37:50;;;;;;;29.70;16.80;;;;;;;9.12;93.10;95954.56;5050362;28;20614;-76
2022/11/11 01:40:16;;;;;;;31.97;17.87;;;;;;;9.09;93.38;95963.59;5051966;28;20175;-76
2022/11/11 01:43:13;;;;;;;40.50;18.30;;;;;;;9.13;93.59;95956.19;5056230;28;20609;-75
2022/11/11 01:45:53;;;;;;;31.57;16.20;;;;;;;9.17;93.89;95958.28;5079875;28;20201;-76
2022/11/11 01:51:44;;;;;;;41.53;17.00;;;;;;;9.23;93.86;95964.66;5091139;28;20188;-76
2022/11/11 01:54:26;;;;;;;33.80;17.37;;;;;;;9.23;93.88;95970.75;5090408;28;20193;-76
2022/11/11 01:56:59;;;;;;;35.07;17.53;;;;;;;9.25;93.54;95968.78;5090303;28;20613;-77
2022/11/11 01:59:25;;;;;;;37.13;19.37;;;;;;;9.28;93.80;95971.03;5072523;28;20188;-76
2022/11/11 02:01:51;;;;;;;43.30;20.65;;;;;;;9.28;94.91;95973.66;5089811;28;20416;-77
2022/11/11 02:07:07;;;;;;;34.83;18.23;;;;;;;9.31;95.86;95975.94;5090476;28;20184;-76
2022/11/11 02:09:35;;;;;;;45.05;21.00;;;;;;;9.46;95.79;95973.34;5090505;28;20957;-76
2022/11/11 02:14:53;;;;;;;40.00;18.23;;;;;;;9.61;95.12;95976.03;5091017;28;20181;-76
2022/11/11 02:17:18;;;;;;;36.10;18.87;;;;;;;9.48;95.27;95952.97;5090702;28;20296;-76
2022/11/11 02:19:56;;;;;;;33.57;17.87;;;;;;;9.59;94.88;95975.41;5090470;28;20174;-77
2022/11/11 02:22:48;;;;;;;40.15;21.95;;;;;;;9.62;95.14;95977.66;5088818;28;20910;-76
2022/11/11 02:25:17;;;;;;;37.88;19.65;;;;;;;9.48;94.27;95947.72;5089860;28;20507;-76
2022/11/11 02:27:48;;;;;;;38.65;20.27;;;;;;;9.51;94.39;95975.47;5089945;28;20408;-77
2022/11/11 02:30:15;;;;;;;41.53;22.17;;;;;;;9.50;94.70;95968.59;5089093;28;20411;-76
2022/11/11 02:32:47;;;;;;;34.97;19.10;;;;;;;9.56;94.18;95979.19;5090248;28;20786;-76
2022/11/11 02:35:16;;;;;;;41.08;21.85;;;;;;;9.50;94.63;95986.97;5089031;28;20411;-76
2022/11/11 02:37:44;;;;;;;39.57;21.60;;;;;;;9.56;94.12;95984.47;5090329;28;20178;-76
2022/11/11 02:40:14;;;;;;;34.07;18.47;;;;;;;9.54;94.00;95973.28;5090282;28;20177;-77
2022/11/11 02:42:40;;;;;;;41.70;21.50;;;;;;;9.41;94.36;95978.34;5090428;28;20174;-77
2022/11/11 02:45:05;;;;;;;39.60;19.47;;;;;;;9.40;94.21;95969.63;5090288;28;20204;-77
2022/11/11 02:47:31;;;;;;;36.27;19.03;;;;;;;9.46;94.41;95984.69;5071933;28;20182;-77
2022/11/11 02:49:56;;;;;;;38.17;21.53;;;;;;;9.43;94.71;95974.53;5072941;28;20455;-76
2022/11/11 02:52:21;;;;;;;39.23;21.87;;;;;;;9.51;95.12;95983.38;5072281;28;20440;-77
2022/11/11 02:54:48;;;;;;;39.03;20.30;;;;;;;9.61;94.64;95978.66;5073570;28;20401;-77
2022/11/11 02:57:13;;;;;;;45.25;22.88;;;;;;;9.48;94.98;95966.13;5072528;28;20437;-76
2022/11/11 02:59:40;;;;;;;38.30;19.77;;;;;;;9.60;94.31;95977.84;5073293;28;20755;-77
2022/11/11 03:02:06;;;;;;;41.10;19.30;;;;;;;9.65;94.62;95983.41;5073357;28;20249;-77
2022/11/11 03:04:32;;;;;;;44.17;20.67;;;;;;;9.69;94.73;95987.28;5055363;28;20335;-77
2022/11/11 03:06:58;;;;;;;46.03;20.43;;;;;;;9.77;94.74;95989.06;5055378;28;20182;-77
2022/11/11 03:09:24;;;;;;;37.70;19.43;;;;;;;9.82;94.54;95978.81;5073436;28;20173;-77
2022/11/11 03:11:49;;;;;;;41.10;20.93;;;;;;;9.98;94.49;95983.09;5072719;28;21460;-76
2022/11/11 03:14:14;;;;;;;38.90;20.67;;;;;;;9.87;95.17;95967.75;5072090;28;20425;-75
2022/11/11 03:19:24;;;;;;;35.93;19.87;;;;;;;10.09;95.27;95962.44;5072896;28;20296;-76
2022/11/11 03:21:49;;;;;;;38.17;20.20;;;;;;;10.26;95.25;95980.72;5072822;28;20290;-75
2022/11/11 03:24:14;;;;;;;38.50;21.40;;;;;;;10.36;94.91;95981.28;5072327;28;20805;-76
2022/11/11 03:26:40;;;;;;;43.53;23.92;;;;;;;10.29;94.98;95967.22;5071506;28;20416;-75
2022/11/11 03:29:05;;;;;;;43.03;20.93;;;;;;;10.51;95.04;95972.38;5072655;28;20179;-75
2022/11/11 03:31:31;;;;;;;39.03;21.37;;;;;;;10.57;94.39;95976.91;5072633;28;20170;-76
2022/11/11 03:34:16;;;;;;;40.57;23.43;;;;;;;10.31;94.33;95933.63;5071448;28;20470;-75
2022/11/11 03:39:26;;;;;;;44.13;25.77;;;;;;;10.54;94.25;95965.94;5072466;28;20416;-76
2022/11/11 03:41:51;;;;;;;46.77;24.23;;;;;;;10.63;94.38;95979.81;5072407;28;20569;-76
2022/11/11 03:44:16;;;;;;;44.37;25.03;;;;;;;10.67;94.62;95974.00;5072295;28;20578;-76
2022/11/11 03:46:42;;;;;;;42.23;22.97;;;;;;;10.79;94.22;95982.25;5072310;28;20227;-76
2022/11/11 03:49:07;;;;;;;48.87;25.93;;;;;;;10.83;94.00;95983.50;5070890;28;20923;-75
2022/11/11 03:51:32;;;;;;;40.83;21.90;;;;;;;10.81;94.32;95982.88;5072231;28;20170;-76
2022/11/11 03:53:58;;;;;;;37.17;20.07;;;;;;;10.73;93.99;95946.09;5072049;28;20231;-74
2022/11/11 03:56:23;;;;;;;40.07;19.83;;;;;;;10.94;93.92;95983.03;5071929;28;20253;-73
2022/11/11 03:58:48;;;;;;;38.80;20.03;;;;;;;10.89;93.79;95945.91;5071637;28;20183;-74
2022/11/11 04:10:21;;;;;;;38.17;21.57;;;;;;;11.12;93.60;95980.00;5071282;28;20413;-74
2022/11/11 04:12:11;;;;;;;41.37;20.90;;;;;;;11.25;93.45;95972.22;5071647;28;20227;-74
2022/11/11 04:17:20;;;;;;;40.33;21.27;;;;;;;11.30;93.18;95975.13;5071547;28;20231;-74
2022/11/11 04:22:29;;;;;;;46.30;21.43;;;;;;;11.29;93.44;95982.22;5058019;28;20247;-74
2022/11/11 04:27:38;;;;;;;48.27;23.40;;;;;;;11.33;93.43;95988.72;5071438;28;20209;-74
2022/11/11 04:30:04;;;;;;;45.50;23.93;;;;;;;11.32;93.44;95987.13;5071348;28;20198;-74
2022/11/11 04:32:37;;;;;;;44.15;25.33;;;;;;;11.33;93.54;95996.63;5069959;28;20398;-73
2022/11/11 04:35:08;;;;;;;41.87;22.93;;;;;;;11.17;93.38;95975.78;5071232;28;20273;-74
2022/11/11 04:37:36;;;;;;;37.47;19.67;;;;;;;11.18;93.36;95973.97;5071170;28;20170;-75
2022/11/11 04:42:45;;;;;;;40.78;21.50;;;;;;;11.33;93.39;95980.00;5058326;28;20420;-76
2022/11/11 04:45:27;;;;;;;34.30;18.40;;;;;;;11.38;93.46;95997.91;5068780;28;20210;-75
2022/11/11 04:48:02;;;;;;;36.92;20.95;;;;;;;11.44;93.48;96000.59;5068161;28;20958;-75
2022/11/11 04:50:38;;;;;;;37.00;20.83;;;;;;;11.46;93.68;95993.31;5087879;28;20411;-75
2022/11/11 04:53:06;;;;;;;39.10;21.83;;;;;;;11.47;93.26;95981.78;5089844;28;20410;-75
2022/11/11 04:58:21;;;;;;;28.90;16.97;;;;;;;11.65;92.73;95999.81;5091579;28;20228;-76
2022/11/11 05:00:46;;;;;;;34.30;17.03;;;;;;;11.65;92.44;96000.63;5091475;28;20209;-76
2022/11/11 05:03:15;;;;;;;30.27;16.43;;;;;;;11.60;92.57;96007.44;5069252;28;20329;-76
2022/11/11 05:11:14;;;;;;;38.27;18.77;;;;;;;11.61;92.79;96002.00;5070064;28;20189;-74
2022/11/11 05:22:10;;;;;;;39.47;20.50;;;;;;;11.59;92.40;96003.19;5069275;28;20419;-73
2022/11/11 05:27:20;;;;;;;34.15;17.40;;;;;;;11.60;92.35;96016.19;5054069;28;21054;-73
2022/11/11 05:29:46;;;;;;;30.87;15.60;;;;;;;11.63;91.84;96015.81;5069907;28;20261;-73
2022/11/11 05:32:16;;;;;;;27.03;14.23;;;;;;;11.66;91.88;96019.91;5070613;28;20976;-73
2022/11/11 05:34:41;;;;;;;29.00;13.67;;;;;;;11.59;91.18;96016.34;5084765;28;20254;-74
2022/11/11 05:37:07;;;;;;;24.47;13.07;;;;;;;11.66;91.51;96033.09;5089895;28;20182;-74
2022/11/11 05:39:32;;;;;;;22.10;12.83;;;;;;;11.66;91.78;96030.44;5058643;28;20205;-76
2022/11/11 05:41:57;;;;;;;25.77;14.80;;;;;;;11.63;91.27;96036.91;5068456;28;20500;-73
2022/11/11 05:44:23;;;;;;;29.53;15.63;;;;;;;11.58;91.42;96035.84;5069499;28;20737;-73
2022/11/11 05:46:48;;;;;;;23.73;12.93;;;;;;;11.52;91.43;96024.22;5069797;28;20182;-73
2022/11/11 05:49:14;;;;;;;24.57;14.67;;;;;;;11.49;91.70;96029.06;5068527;28;20424;-73
2022/11/11 05:51:39;;;;;;;24.40;13.37;;;;;;;11.49;91.68;96031.69;5070331;28;20178;-74
2022/11/11 05:54:04;;;;;;;21.73;12.30;;;;;;;11.46;91.84;96043.44;5070235;28;20174;-73
2022/11/11 05:56:30;;;;;;;28.50;14.57;;;;;;;11.49;91.90;96045.69;5089478;28;20181;-74
2022/11/11 05:58:55;;;;;;;29.77;15.63;;;;;;;11.49;91.96;96056.25;5090356;28;20271;-73
2022/11/11 06:01:21;;;;;;;34.83;19.63;;;;;;;11.53;91.86;96057.50;5090547;28;20185;-74
2022/11/11 06:03:46;;;;;;;43.67;25.00;;;;;;;11.49;92.14;96053.63;5089037;28;20440;-73
2022/11/11 06:06:12;;;;;;;38.13;20.40;;;;;;;11.47;92.22;96065.34;5090136;28;20189;-73
2022/11/11 06:08:38;;;;;;;34.70;18.50;;;;;;;11.47;92.59;96066.16;5090207;28;20602;-74
2022/11/11 06:11:03;;;;;;;36.58;20.50;;;;;;;11.47;92.56;96060.88;5089229;28;20442;-73
2022/11/11 06:13:28;;;;;;;30.53;17.33;;;;;;;11.51;92.30;96067.41;5090153;28;20909;-74
2022/11/11 06:15:55;;;;;;;27.83;14.40;;;;;;;11.51;91.92;96077.97;5090110;28;20234;-74
2022/11/11 06:18:20;;;;;;;30.27;15.50;;;;;;;11.55;91.79;96073.13;5090019;28;20181;-75
2022/11/11 06:20:51;;;;;;;32.47;16.40;;;;;;;11.51;91.87;96079.78;5089742;28;20412;-74
2022/11/11 06:23:16;;;;;;;36.00;17.73;;;;;;;11.21;92.01;96042.13;5078435;28;20472;-75
2022/11/11 06:28:25;;;;;;;28.37;13.93;;;;;;;11.32;92.31;96089.94;5073823;28;20185;-75
2022/11/11 06:30:51;;;;;;;25.97;14.53;;;;;;;11.37;92.32;96085.91;5073505;28;20186;-75
2022/11/11 06:33:16;;;;;;;26.63;14.47;;;;;;;11.42;92.40;96094.06;5073696;28;20185;-75
2022/11/11 06:35:43;;;;;;;29.83;16.25;;;;;;;11.39;92.60;96097.91;5054239;28;20425;-75
2022/11/11 06:38:08;;;;;;;30.83;17.25;;;;;;;11.37;92.85;96104.38;5060841;28;20421;-75
2022/11/11 06:40:33;;;;;;;27.67;14.60;;;;;;;11.42;92.64;96102.81;5073041;28;20178;-76
2022/11/11 06:42:59;;;;;;;24.57;12.97;;;;;;;11.40;92.07;96099.56;5073138;28;20182;-75
2022/11/11 06:45:27;;;;;;;24.60;14.47;;;;;;;11.33;91.89;96085.44;5070352;28;20202;-75
2022/11/11 06:47:52;;;;;;;23.87;13.40;;;;;;;11.49;91.99;96116.91;5073361;28;20712;-75
2022/11/11 06:50:19;;;;;;;26.33;14.03;;;;;;;11.50;91.88;96110.59;5073193;28;20188;-75
2022/11/11 06:52:44;;;;;;;24.67;13.73;;;;;;;11.62;92.69;96121.50;5064740;28;20206;-76
2022/11/11 06:55:10;;;;;;;27.35;15.63;;;;;;;11.34;92.63;96068.63;5071710;28;20506;-76
2022/11/11 06:57:36;;;;;;;33.08;14.55;;;;;;;11.66;92.88;96118.31;5073314;28;20385;-76
2022/11/11 07:00:03;;;;;;;27.20;14.80;;;;;;;11.73;92.78;96119.19;5072186;28;20516;-75
2022/11/11 07:02:29;;;;;;;22.20;13.00;;;;;;;11.73;92.03;96119.19;5070140;28;20230;-76
2022/11/11 07:04:54;;;;;;;25.10;13.83;;;;;;;11.80;91.50;96113.19;5072455;28;20257;-76
2022/11/11 07:07:20;;;;;;;26.73;13.77;;;;;;;11.87;92.00;96124.63;5073135;28;20174;-76
2022/11/11 07:09:45;;;;;;;28.70;15.43;;;;;;;11.86;91.81;96125.63;5071929;28;20425;-76
2022/11/11 07:12:10;;;;;;;25.77;14.00;;;;;;;11.93;91.48;96123.91;5073133;28;20182;-75
2022/11/11 07:14:36;;;;;;;24.53;12.67;;;;;;;12.01;90.92;96126.44;5070495;28;20185;-76
2022/11/11 07:17:01;;;;;;;25.23;12.63;;;;;;;12.10;90.93;96120.03;5073199;28;20178;-75
2022/11/11 07:19:27;;;;;;;22.50;12.63;;;;;;;12.22;90.68;96134.31;5069125;28;20175;-76
2022/11/11 07:21:53;;;;;;;25.87;12.80;;;;;;;12.21;90.29;96126.59;5065837;28;20261;-75
2022/11/11 07:24:18;;;;;;;23.27;12.60;;;;;;;12.13;89.58;96116.16;5072690;28;20738;-75
2022/11/11 07:26:43;;;;;;;26.60;12.97;;;;;;;12.25;88.88;96141.88;5069561;28;20181;-75
2022/11/11 07:29:09;;;;;;;26.33;15.27;;;;;;;12.15;89.74;96138.72;5069663;28;20417;-75
2022/11/11 07:31:34;;;;;;;23.37;12.70;;;;;;;12.16;89.39;96139.56;5067844;28;20626;-76
2022/11/11 07:34:00;;;;;;;26.43;12.67;;;;;;;12.18;88.91;96150.75;5072336;28;20193;-75
2022/11/11 07:36:25;;;;;;;26.47;13.60;;;;;;;12.24;89.52;96147.34;5072696;28;20181;-75
2022/11/11 07:38:51;;;;;;;29.57;13.77;;;;;;;12.31;89.09;96145.56;5072502;28;20186;-76
2022/11/11 07:41:16;;;;;;;24.43;13.37;;;;;;;12.31;88.73;96158.78;5072118;28;20252;-75
2022/11/11 07:43:41;;;;;;;24.10;13.60;;;;;;;12.15;88.64;96132.63;5072174;28;20206;-76
2022/11/11 07:46:07;;;;;;;23.63;13.20;;;;;;;12.06;88.86;96130.13;5072325;28;20552;-76
2022/11/11 07:48:32;;;;;;;23.70;12.07;;;;;;;12.28;88.44;96165.25;5072745;28;20266;-76
2022/11/11 07:50:58;;;;;;;22.73;13.00;;;;;;;12.24;88.33;96161.38;5072712;28;20259;-76
2022/11/11 07:53:25;;;;;;;22.93;12.03;;;;;;;12.20;88.18;96169.84;5071592;28;20222;-75
2022/11/11 07:55:50;;;;;;;24.27;13.13;;;;;;;12.06;87.97;96164.44;5066956;28;20425;-75
2022/11/11 07:58:16;;;;;;;20.53;12.10;;;;;;;11.89;88.39;96168.31;5070969;28;20181;-75
2022/11/11 08:00:41;;;;;;;21.65;13.73;;;;;;;11.88;88.42;96179.88;5091417;28;20416;-77
2022/11/11 08:03:06;;;;;;;31.97;15.93;;;;;;;11.83;88.50;96178.81;5075450;28;20536;-77
2022/11/11 08:05:32;;;;;;;27.58;14.90;;;;;;;11.81;88.65;96178.16;5087681;28;20455;-77
2022/11/11 08:08:08;;;;;;;29.77;15.93;;;;;;;11.67;88.90;96167.44;5092347;28;20412;-76
2022/11/11 08:10:34;;;;;;;33.08;20.70;;;;;;;11.61;89.78;96170.78;5090537;28;20416;-76
2022/11/11 08:15:44;;;;;;;36.00;19.90;;;;;;;11.71;89.16;96178.41;5092440;28;20212;-77
2022/11/11 08:18:09;;;;;;;29.97;14.80;;;;;;;11.72;89.06;96178.25;5091886;28;20260;-76
2022/11/11 08:20:35;;;;;;;24.57;12.57;;;;;;;11.73;89.08;96171.97;5091776;28;20636;-76
2022/11/11 08:23:03;;;;;;;22.47;12.10;;;;;;;11.91;89.03;96183.97;5090499;28;20242;-77
2022/11/11 08:25:29;;;;;;;24.90;12.10;;;;;;;11.97;89.40;96175.28;5085999;28;20232;-76
2022/11/11 08:27:59;;;;;;;19.50;10.43;;;;;;;11.82;88.80;96142.84;5092318;28;20170;-77
2022/11/11 08:30:24;;;;;;;21.93;11.20;;;;;;;12.06;88.32;96164.44;5092192;28;20652;-77
2022/11/11 08:33:00;;;;;;;17.13;9.97;;;;;;;12.03;87.68;96177.19;5091984;28;20192;-77
2022/11/11 08:35:27;;;;;;;23.00;10.90;;;;;;;12.06;87.76;96182.09;5091620;28;20169;-77
2022/11/11 08:37:52;;;;;;;20.03;10.07;;;;;;;12.08;87.48;96185.38;5091714;28;20188;-77
2022/11/11 08:40:18;;;;;;;24.53;11.57;;;;;;;12.13;87.74;96185.63;5079712;28;20178;-77
2022/11/11 08:42:44;;;;;;;19.20;11.13;;;;;;;12.15;87.52;96174.88;5071894;28;20182;-76
2022/11/11 08:45:10;;;;;;;18.40;10.40;;;;;;;12.24;87.16;96181.66;5056910;28;20612;-77
2022/11/11 08:47:36;;;;;;;19.67;10.37;;;;;;;12.26;86.78;96169.91;5091353;28;20185;-77
2022/11/11 08:50:03;;;;;;;19.23;11.03;;;;;;;12.36;86.78;96181.00;5091305;28;20178;-77
2022/11/11 08:52:29;;;;;;;19.27;11.00;;;;;;;12.43;86.72;96186.31;5085615;28;20657;-77
2022/11/11 08:54:54;;;;;;;24.57;13.37;;;;;;;12.40;85.80;96182.22;5072278;28;20182;-77
2022/11/11 08:57:19;;;;;;;26.03;14.13;;;;;;;12.36;85.78;96186.28;5091307;28;20189;-77
2022/11/11 08:59:45;;;;;;;23.60;13.43;;;;;;;12.41;85.74;96177.78;5086634;28;20617;-77
2022/11/11 09:02:11;;;;;;;20.80;12.30;;;;;;;12.53;85.47;96172.81;5072220;28;20210;-79
2022/11/11 09:04:38;;;;;;;23.57;13.40;;;;;;;12.46;84.53;96159.53;5086068;28;20201;-79
2022/11/11 09:07:05;;;;;;;18.20;11.17;;;;;;;12.54;84.11;96169.94;5090435;28;20304;-77
2022/11/11 09:09:30;;;;;;;25.67;13.97;;;;;;;12.59;84.46;96178.13;5070735;28;20186;-76
2022/11/11 09:11:56;;;;;;;20.03;12.73;;;;;;;12.64;84.30;96174.91;5068414;28;20182;-76
2022/11/11 09:14:21;;;;;;;15.20;9.53;;;;;;;12.66;83.22;96184.28;5058464;28;20163;-76
2022/11/11 09:16:47;;;;;;;18.33;9.80;;;;;;;12.50;82.88;96155.50;5070370;28;20187;-76
2022/11/11 09:19:12;;;;;;;12.47;7.87;;;;;;;12.58;82.52;96180.97;5069398;28;20174;-76
2022/11/11 09:21:37;;;;;;;12.80;7.63;;;;;;;12.58;82.41;96176.50;5068768;28;20182;-76
2022/11/11 09:24:03;;;;;;;10.67;6.07;;;;;;;12.49;81.68;96169.72;5064154;28;20203;-77
2022/11/11 09:26:29;;;;;;;13.63;6.67;;;;;;;12.54;81.49;96185.00;5064796;28;20600;-77
2022/11/11 09:28:54;;;;;;;12.40;6.43;;;;;;;12.53;81.73;96173.63;5071089;28;20170;-77
2022/11/11 09:31:19;;;;;;;10.33;6.60;;;;;;;12.58;80.92;96176.50;5071176;28;20264;-77
2022/11/11 09:33:45;;;;;;;15.83;8.00;;;;;;;12.55;81.46;96162.84;5071169;28;20185;-78
2022/11/11 09:36:10;;;;;;;16.23;8.87;;;;;;;12.63;81.56;96179.38;5080670;28;20196;-78
2022/11/11 09:38:42;;;;;;;16.77;8.47;;;;;;;12.67;81.45;96182.47;5067885;28;20189;-78
2022/11/11 09:41:32;;;;;;;11.63;7.60;;;;;;;12.70;80.77;96176.81;5069665;28;20636;-78
2022/11/11 09:44:02;;;;;;;12.67;7.00;;;;;;;12.61;81.18;96149.72;5090410;28;20332;-77
2022/11/11 09:46:58;;;;;;;22.20;8.77;;;;;;;12.77;81.22;96175.03;5073205;28;20182;-77
2022/11/11 09:49:50;;;;;;;15.20;8.23;;;;;;;12.82;80.79;96168.16;5071360;28;20695;-77
2022/11/11 09:52:25;;;;;;;14.87;8.33;;;;;;;12.87;80.60;96170.22;5071074;28;20235;-77
2022/11/11 09:54:58;;;;;;;12.40;8.70;;;;;;;12.84;80.84;96162.69;5073704;28;20173;-77
2022/11/11 09:57:37;;;;;;;10.53;6.80;;;;;;;12.90;80.08;96164.53;5094362;28;20192;-77
2022/11/11 10:00:15;;;;;;;10.87;7.30;;;;;;;12.90;79.38;96153.97;5091151;28;20177;-77
2022/11/11 10:02:59;;;;;;;12.13;6.50;;;;;;;12.77;79.46;96130.94;5074228;28;20221;-77
2022/11/11 10:05:36;;;;;;;13.63;6.97;;;;;;;12.91;78.92;96155.59;5069069;28;20645;-76
2022/11/11 10:08:23;;;;;;;8.87;6.10;;;;;;;12.84;78.87;96154.75;5091787;28;20247;-77
2022/11/11 10:10:51;;;;;;;12.53;6.37;;;;;;;12.91;79.11;96149.50;5094603;28;20183;-76
2022/11/11 10:13:27;;;;;;;9.80;6.70;;;;;;;12.95;78.57;96145.47;5094348;28;20234;-76
2022/11/11 10:16:46;;;;;;;16.03;7.10;;;;;;;12.97;78.69;96159.34;5076945;28;20567;-76
2022/11/11 10:19:36;;;;;;;10.07;6.47;;;;;;;13.07;78.41;96155.31;4993311;28;20196;-78
2022/11/11 10:22:17;;;;;;;14.83;8.00;;;;;;;13.15;77.92;96151.72;5071257;28;20198;-75
2022/11/11 10:24:48;;;;;;;12.90;7.93;;;;;;;13.20;77.00;96155.44;5074338;28;20198;-76
2022/11/11 10:27:23;;;;;;;14.27;7.80;;;;;;;13.20;78.01;96155.44;5064390;28;20193;-76
2022/11/11 10:29:49;;;;;;;16.37;8.60;;;;;;;13.29;78.08;96161.38;5074209;28;20174;-77
2022/11/11 10:32:23;;;;;;;16.40;8.80;;;;;;;13.36;77.81;96154.28;5074370;28;20177;-77
2022/11/11 10:34:49;;;;;;;16.17;8.23;;;;;;;13.42;77.31;96155.31;5085849;28;20184;-77
2022/11/11 10:37:23;;;;;;;10.87;6.83;;;;;;;13.45;76.06;96150.47;5094607;28;20182;-77
2022/11/11 10:40:09;;;;;;;18.13;8.53;;;;;;;13.32;76.60;96146.97;5081330;28;20667;-78
2022/11/11 10:42:35;;;;;;;13.23;7.37;;;;;;;13.31;76.43;96140.03;5083398;28;20867;-79
2022/11/11 10:45:07;;;;;;;11.90;7.30;;;;;;;13.36;77.81;96148.19;5083260;28;20584;-79
2022/11/11 10:47:57;;;;;;;10.47;6.27;;;;;;;13.37;77.19;96144.53;5082525;28;20568;-79
2022/11/11 10:50:30;;;;;;;14.00;6.60;;;;;;;13.48;77.54;96142.16;5072537;28;20193;-79
2022/11/11 10:53:23;;;;;;;8.33;6.00;;;;;;;13.48;75.23;96138.69;5068341;28;20738;-78
2022/11/11 10:56:13;;;;;;;11.00;6.77;;;;;;;13.40;74.97;96138.88;5066112;28;20184;-79
2022/11/11 10:58:42;;;;;;;12.10;7.37;;;;;;;13.38;75.35;96135.59;5068763;28;20179;-78
2022/11/11 11:01:12;;;;;;;13.00;6.47;;;;;;;13.38;74.53;96131.13;5066050;28;20591;-79
2022/11/11 11:03:54;;;;;;;10.10;6.27;;;;;;;13.41;74.71;96135.19;5061264;28;20230;-78
2022/11/11 11:06:24;;;;;;;11.63;7.40;;;;;;;13.49;75.82;96132.38;5067603;28;20171;-79
2022/11/11 11:09:11;;;;;;;18.93;6.43;;;;;;;13.55;74.60;96135.06;5061741;28;20986;-78
2022/11/11 11:11:51;;;;;;;11.53;6.83;;;;;;;13.59;75.48;96125.69;5065308;28;20248;-78
2022/11/11 11:14:23;;;;;;;10.73;6.70;;;;;;;13.67;74.59;96124.69;5066659;28;20220;-79
2022/11/11 11:16:51;;;;;;;13.33;7.00;;;;;;;13.56;73.42;96088.25;5068922;28;20257;-79
2022/11/11 11:19:26;;;;;;;13.23;6.70;;;;;;;13.85;73.26;96124.16;5065968;28;20639;-78
2022/11/11 11:22:02;;;;;;;14.17;6.60;;;;;;;13.89;73.17;96123.56;5061611;28;20210;-79
2022/11/11 11:24:30;;;;;;;18.43;8.07;;;;;;;14.03;72.67;96118.28;5065186;28;20281;-78
2022/11/11 11:26:59;;;;;;;8.53;4.97;;;;;;;13.98;69.18;96125.00;5067771;28;20209;-78
2022/11/11 11:29:29;;;;;;;8.63;5.63;;;;;;;14.02;69.45;96116.66;5068305;28;20174;-79
2022/11/11 11:31:55;;;;;;;7.23;5.10;;;;;;;13.89;68.15;96097.09;5078537;28;20177;-79
2022/11/11 11:34:21;;;;;;;9.37;5.63;;;;;;;13.93;70.07;96086.91;5076324;28;20175;-78
2022/11/11 11:37:00;;;;;;;9.33;5.80;;;;;;;14.14;71.27;96104.47;5064541;28;20170;-78
2022/11/11 11:39:36;;;;;;;11.30;6.73;;;;;;;14.28;69.38;96106.91;5053574;28;20220;-78
2022/11/11 11:42:01;;;;;;;11.63;5.37;;;;;;;14.08;68.24;96039.88;5072767;28;20177;-79
2022/11/11 11:44:31;;;;;;;10.33;5.97;;;;;;;14.47;66.76;96104.50;5073600;28;20656;-79
2022/11/11 11:47:22;;;;;;;9.80;5.07;;;;;;;14.48;66.48;96096.34;5073675;28;20186;-78
2022/11/11 11:50:09;;;;;;;9.33;5.57;;;;;;;14.46;67.62;96102.88;5059325;28;20189;-77
2022/11/11 11:52:43;;;;;;;10.30;6.80;;;;;;;14.49;67.86;96097.19;5082710;28;20170;-77
2022/11/11 11:55:22;;;;;;;12.33;7.20;;;;;;;14.54;68.79;96100.84;5077211;28;20182;-77
2022/11/11 11:57:51;;;;;;;10.47;6.30;;;;;;;14.54;67.52;96092.06;5080435;28;20256;-77
2022/11/11 12:00:19;;;;;;;9.47;5.70;;;;;;;14.45;66.24;96088.81;5093412;28;20189;-78
2022/11/11 12:03:02;;;;;;;9.83;5.93;;;;;;;14.36;67.36;96098.75;5078994;28;20186;-78
2022/11/11 12:05:49;;;;;;;10.80;5.85;;;;;;;14.26;66.14;96094.91;5071326;28;20928;-78
2022/11/11 12:08:29;;;;;;;10.33;5.47;;;;;;;14.21;66.83;96105.28;5076016;28;20594;-77
2022/11/11 12:11:04;;;;;;;11.70;6.28;;;;;;;14.14;66.17;96092.03;5088580;28;20412;-77
2022/11/11 12:13:47;;;;;;;14.27;7.67;;;;;;;14.03;66.18;96097.91;5092953;28;20499;-77
2022/11/11 12:16:24;;;;;;;16.10;8.00;;;;;;;13.88;67.20;96092.81;5075599;28;20417;-77
2022/11/11 12:19:17;;;;;;;19.85;10.45;;;;;;;13.73;67.06;96097.47;5071173;28;21106;-77
2022/11/11 12:22:08;;;;;;;8.37;5.23;;;;;;;13.76;68.24;96085.63;5080867;28;20204;-77
2022/11/11 12:24:49;;;;;;;8.37;5.17;;;;;;;13.79;67.64;96080.78;5071772;28;20597;-77
2022/11/11 12:27:52;;;;;;;8.20;5.13;;;;;;;13.83;68.95;96078.56;5085104;28;20177;-77
2022/11/11 12:30:26;;;;;;;11.70;5.47;;;;;;;13.89;69.72;96073.25;5069259;28;20174;-77
2022/11/11 12:33:05;;;;;;;9.77;5.13;;;;;;;13.95;67.53;96074.28;5092260;28;20190;-78
2022/11/11 12:35:51;;;;;;;9.07;5.40;;;;;;;13.91;67.47;96071.25;5074319;28;20489;-77
2022/11/11 12:38:32;;;;;;;7.97;4.63;;;;;;;13.96;70.28;96066.16;5066326;28;20174;-77
2022/11/11 12:41:15;;;;;;;10.80;5.17;;;;;;;13.96;66.94;96074.09;5079011;28;20178;-77
2022/11/11 12:44:01;;;;;;;9.63;5.10;;;;;;;13.91;66.62;96073.06;5071945;28;20918;-77
2022/11/11 12:46:51;;;;;;;12.07;6.70;;;;;;;13.83;68.36;96073.25;5064728;28;20500;-77
2022/11/11 12:49:17;;;;;;;12.20;6.43;;;;;;;13.80;67.92;96076.28;5084649;28;20264;-78